createdAt,value
2023-03-29T00:01:52.868Z,96192.00
2023-03-29T00:04:23.482Z,96190.94
2023-03-29T00:06:50.875Z,96197.03
2023-03-29T00:09:18.492Z,96205.50
2023-03-29T00:11:45.508Z,96181.38
2023-03-29T00:14:12.810Z,96143.16
2023-03-29T00:16:39.659Z,96148.63
2023-03-29T00:19:06.533Z,96152.59
2023-03-29T00:21:33.455Z,96155.72
2023-03-29T00:24:00.556Z,96150.63
2023-03-29T00:26:27.401Z,96126.50
2023-03-29T00:28:54.348Z,96118.06
2023-03-29T00:31:21.342Z,96134.00
2023-03-29T00:33:48.312Z,96142.53
2023-03-29T00:36:16.153Z,96135.88
2023-03-29T00:38:43.300Z,96125.91
2023-03-29T00:41:10.869Z,96127.84
2023-03-29T00:43:59.711Z,96115.88
2023-03-29T00:46:27.718Z,96143.38
2023-03-29T00:48:58.096Z,96131.16
2023-03-29T00:51:26.999Z,96124.13
2023-03-29T00:53:59.026Z,96152.50
2023-03-29T00:56:32.014Z,96178.81
2023-03-29T00:59:05.593Z,96123.34
2023-03-29T01:01:54.985Z,96091.44
2023-03-29T01:04:34.180Z,96105.75
2023-03-29T01:07:07.777Z,96144.63
2023-03-29T01:09:37.835Z,96130.50
2023-03-29T01:12:20.087Z,96117.31
2023-03-29T01:15:02.390Z,96117.38
2023-03-29T01:17:32.023Z,96111.97
2023-03-29T01:19:59.950Z,96108.91
2023-03-29T01:22:42.870Z,96104.19
2023-03-29T01:25:41.589Z,96106.81
2023-03-29T01:28:13.661Z,96118.28
2023-03-29T01:30:49.489Z,96118.09
2023-03-29T01:33:23.805Z,96081.78
2023-03-29T01:36:12.166Z,96083.94
2023-03-29T01:38:57.433Z,96086.69
2023-03-29T01:41:28.820Z,96079.44
2023-03-29T01:43:58.819Z,96066.38
2023-03-29T01:46:42.676Z,96068.91
2023-03-29T01:49:35.031Z,96055.00
2023-03-29T01:52:09.252Z,96070.72
2023-03-29T01:54:38.724Z,96068.66
2023-03-29T01:57:06.289Z,96076.44
2023-03-29T01:59:34.858Z,96096.59
2023-03-29T02:02:05.887Z,96096.72
2023-03-29T02:04:38.532Z,96086.38
2023-03-29T02:07:07.592Z,96069.47
2023-03-29T02:09:34.544Z,96056.72
2023-03-29T02:12:01.572Z,96048.84
2023-03-29T02:14:30.759Z,96071.84
2023-03-29T02:16:57.618Z,96062.50
2023-03-29T02:19:25.478Z,96057.06
2023-03-29T02:22:10.551Z,96049.69
2023-03-29T02:24:37.642Z,96045.94
2023-03-29T02:27:04.571Z,96038.09
2023-03-29T02:29:31.377Z,96031.94
2023-03-29T02:32:13.391Z,96035.41
2023-03-29T02:35:08.225Z,96041.78
2023-03-29T02:37:36.577Z,96054.38
2023-03-29T02:40:08.200Z,96055.19
2023-03-29T02:42:35.069Z,96047.91
2023-03-29T02:45:02.292Z,96042.53
2023-03-29T02:47:35.470Z,96032.88
2023-03-29T02:50:02.441Z,96024.69
2023-03-29T02:52:35.203Z,96020.94
2023-03-29T02:55:03.341Z,96039.53
2023-03-29T02:57:32.584Z,96038.13
2023-03-29T03:00:00.094Z,96032.13
2023-03-29T03:02:28.239Z,96038.13
2023-03-29T03:04:55.319Z,96027.88
2023-03-29T03:07:22.244Z,96029.13
2023-03-29T03:09:49.239Z,96022.81
2023-03-29T03:12:16.189Z,96019.22
2023-03-29T03:14:43.552Z,96037.44
2023-03-29T03:17:10.550Z,96039.31
2023-03-29T03:19:38.388Z,96033.75
2023-03-29T03:22:06.174Z,96046.41
2023-03-29T03:24:33.190Z,96049.69
2023-03-29T03:27:00.422Z,96056.69
2023-03-29T03:29:28.603Z,96066.72
2023-03-29T03:31:56.055Z,96064.31
2023-03-29T03:34:23.157Z,96053.03
2023-03-29T03:36:50.868Z,96065.84
2023-03-29T03:39:17.777Z,96058.94
2023-03-29T03:41:44.650Z,96064.34
2023-03-29T03:44:12.068Z,96049.88
2023-03-29T03:46:38.956Z,96052.00
2023-03-29T03:49:05.940Z,96046.00
2023-03-29T03:51:32.951Z,96042.91
2023-03-29T03:53:59.901Z,96045.53
2023-03-29T03:56:30.165Z,96044.94
2023-03-29T03:58:57.691Z,96039.09
2023-03-29T04:01:24.748Z,96045.31
2023-03-29T04:03:51.767Z,96054.56
2023-03-29T04:06:18.877Z,96044.59
2023-03-29T04:08:45.806Z,96057.91
2023-03-29T04:11:12.664Z,96053.13
2023-03-29T04:13:39.699Z,96049.28
2023-03-29T04:16:07.739Z,96042.72
2023-03-29T04:18:34.805Z,96042.84
2023-03-29T04:21:02.191Z,96044.88
2023-03-29T04:23:29.208Z,96054.81
2023-03-29T04:25:59.834Z,96047.19
2023-03-29T04:28:26.748Z,96038.72
2023-03-29T04:30:53.719Z,96040.00
2023-03-29T04:33:21.447Z,96033.19
2023-03-29T04:35:48.324Z,96035.06
2023-03-29T04:38:17.018Z,96035.50
2023-03-29T04:40:44.375Z,96026.66
2023-03-29T04:43:11.414Z,96034.34
2023-03-29T04:45:38.439Z,96032.25
2023-03-29T04:48:06.032Z,96037.59
2023-03-29T04:50:33.222Z,96033.41
2023-03-29T04:53:00.588Z,96033.84
2023-03-29T04:55:27.720Z,96025.63
2023-03-29T04:57:55.803Z,96033.06
2023-03-29T05:00:27.540Z,96027.25
2023-03-29T05:02:55.109Z,96025.19
2023-03-29T05:05:22.458Z,96025.94
2023-03-29T05:07:50.050Z,96034.41
2023-03-29T05:10:17.550Z,96019.88
2023-03-29T05:12:44.776Z,96027.13
2023-03-29T05:15:11.872Z,96035.97
2023-03-29T05:17:39.614Z,96026.19
2023-03-29T05:20:09.810Z,96038.16
2023-03-29T05:22:36.748Z,96035.69
2023-03-29T05:25:04.324Z,96026.56
2023-03-29T05:27:31.171Z,96025.22
2023-03-29T05:29:58.039Z,96035.69
2023-03-29T05:32:25.100Z,96032.56
2023-03-29T05:34:53.150Z,96015.50
2023-03-29T05:37:20.340Z,96021.06
2023-03-29T05:39:49.131Z,96028.25
2023-03-29T05:42:16.473Z,96031.81
2023-03-29T05:44:43.420Z,96045.38
2023-03-29T05:47:10.813Z,96060.66
2023-03-29T05:49:38.275Z,96049.34
2023-03-29T05:52:06.864Z,96043.50
2023-03-29T05:54:49.281Z,96037.69
2023-03-29T05:57:16.432Z,96032.41
2023-03-29T05:59:43.268Z,96040.19
2023-03-29T06:02:11.874Z,96032.09
2023-03-29T06:04:38.775Z,96037.88
2023-03-29T06:07:06.033Z,96055.38
2023-03-29T06:09:33.808Z,96058.59
2023-03-29T06:12:02.133Z,96068.00
2023-03-29T06:14:29.163Z,96062.84
2023-03-29T06:16:56.728Z,96064.84
2023-03-29T06:19:24.404Z,96053.81
2023-03-29T06:21:53.348Z,96049.09
2023-03-29T06:24:20.774Z,96048.75
2023-03-29T06:26:47.712Z,96047.81
2023-03-29T06:29:15.074Z,96059.69
2023-03-29T06:31:42.475Z,96075.78
2023-03-29T06:34:09.601Z,96054.50
2023-03-29T06:36:37.104Z,96060.75
2023-03-29T06:39:04.477Z,96052.88
2023-03-29T06:41:32.057Z,96052.66
2023-03-29T06:43:59.175Z,96061.81
2023-03-29T06:46:26.366Z,96067.41
2023-03-29T06:48:53.673Z,96067.06
2023-03-29T06:51:23.183Z,96069.41
2023-03-29T06:53:50.753Z,96071.16
2023-03-29T06:56:17.752Z,96073.13
2023-03-29T06:58:45.285Z,96071.09
2023-03-29T07:01:13.048Z,96079.84
2023-03-29T07:03:41.520Z,96061.66
2023-03-29T07:06:12.473Z,96065.63
2023-03-29T07:08:43.830Z,96066.13
2023-03-29T07:11:12.745Z,96061.78
2023-03-29T07:13:43.167Z,96069.69
2023-03-29T07:16:14.048Z,96073.16
2023-03-29T07:18:41.948Z,96076.50
2023-03-29T07:21:08.863Z,96086.47
2023-03-29T07:23:36.287Z,96084.97
2023-03-29T07:26:04.116Z,96081.81
2023-03-29T07:28:31.374Z,96085.31
2023-03-29T07:31:11.360Z,96083.06
2023-03-29T07:33:38.679Z,96082.06
2023-03-29T07:36:06.582Z,96082.53
2023-03-29T07:38:33.534Z,96081.94
2023-03-29T07:41:04.192Z,96087.84
2023-03-29T07:43:31.592Z,96087.03
2023-03-29T07:46:05.598Z,96099.13
2023-03-29T07:48:33.241Z,96095.66
2023-03-29T07:51:00.368Z,96102.22
2023-03-29T07:53:29.867Z,96101.75
2023-03-29T07:55:57.348Z,96098.34
2023-03-29T07:58:24.463Z,96099.16
2023-03-29T08:00:51.522Z,96105.72
2023-03-29T08:03:18.546Z,96102.75
2023-03-29T08:05:45.518Z,96111.41
2023-03-29T08:08:14.398Z,96104.25
2023-03-29T08:10:42.830Z,96121.84
2023-03-29T08:13:09.853Z,96113.22
2023-03-29T08:15:38.641Z,96125.75
2023-03-29T08:18:06.972Z,96109.16
2023-03-29T08:20:33.898Z,96111.06
2023-03-29T08:23:01.249Z,96101.81
2023-03-29T08:25:28.091Z,96109.22
2023-03-29T08:27:54.930Z,96097.50
2023-03-29T08:30:22.110Z,96110.34
2023-03-29T08:32:52.290Z,96103.97
2023-03-29T08:35:22.179Z,96105.88
2023-03-29T08:37:49.101Z,96112.56
2023-03-29T08:40:21.576Z,96097.47
2023-03-29T08:43:12.840Z,96102.91
2023-03-29T08:45:54.532Z,96103.69
2023-03-29T08:48:28.724Z,96103.03
2023-03-29T08:51:02.275Z,96113.84
2023-03-29T08:53:35.906Z,96109.53
2023-03-29T08:56:07.227Z,96115.44
2023-03-29T08:58:34.220Z,96114.47
2023-03-29T09:01:02.065Z,96111.03
2023-03-29T09:03:35.252Z,96115.28
2023-03-29T09:06:07.135Z,96107.63
2023-03-29T09:08:42.229Z,96108.78
2023-03-29T09:11:12.176Z,96094.63
2023-03-29T09:13:41.407Z,96107.97
2023-03-29T09:16:20.327Z,96108.69
2023-03-29T09:18:50.037Z,96102.50
2023-03-29T09:21:56.795Z,96100.56
2023-03-29T09:24:33.905Z,96104.06
2023-03-29T09:27:08.937Z,96088.94
2023-03-29T09:29:53.276Z,96082.72
2023-03-29T09:32:22.680Z,96077.03
2023-03-29T09:35:14.610Z,96081.56
2023-03-29T09:37:41.947Z,96078.47
2023-03-29T09:40:14.828Z,96072.59
2023-03-29T09:42:41.761Z,96075.03
2023-03-29T09:45:09.437Z,96095.59
2023-03-29T09:48:02.471Z,96088.09
2023-03-29T09:50:38.101Z,96080.16
2023-03-29T09:53:05.856Z,96073.09
2023-03-29T09:55:34.277Z,96078.09
2023-03-29T09:58:01.996Z,96073.66
2023-03-29T10:00:28.959Z,96084.03
2023-03-29T10:02:58.124Z,96066.38
2023-03-29T10:05:25.869Z,96055.81
2023-03-29T10:07:54.514Z,96062.59
2023-03-29T10:10:28.775Z,96062.13
2023-03-29T10:13:00.135Z,96051.44
2023-03-29T10:15:30.797Z,96048.84
2023-03-29T10:17:59.849Z,96044.69
2023-03-29T10:20:26.630Z,96044.53
2023-03-29T10:22:58.552Z,96031.88
2023-03-29T10:25:33.259Z,96029.34
2023-03-29T10:28:17.739Z,96032.09
2023-03-29T10:30:46.149Z,96015.78
2023-03-29T10:33:16.687Z,96031.91
2023-03-29T10:35:43.822Z,96022.75
2023-03-29T10:38:13.607Z,96026.28
2023-03-29T10:40:45.830Z,96030.50
2023-03-29T10:43:38.785Z,96026.72
2023-03-29T10:46:18.374Z,96019.09
2023-03-29T10:48:50.816Z,96028.72
2023-03-29T10:51:18.846Z,96017.91
2023-03-29T10:53:46.115Z,96031.94
2023-03-29T10:56:18.946Z,96032.41
2023-03-29T10:58:48.837Z,96030.28
2023-03-29T11:01:41.639Z,96030.41
2023-03-29T11:04:28.646Z,96019.84
2023-03-29T11:07:11.254Z,96014.91
2023-03-29T11:09:59.749Z,96022.22
2023-03-29T11:13:08.685Z,96019.34
2023-03-29T11:15:52.089Z,96017.78
2023-03-29T11:18:30.746Z,96007.59
2023-03-29T11:21:10.732Z,96010.84
2023-03-29T11:24:03.658Z,96018.41
2023-03-29T11:26:30.712Z,96019.38
2023-03-29T11:29:09.608Z,96012.56
2023-03-29T11:31:38.813Z,96009.06
2023-03-29T11:34:15.748Z,96004.38
2023-03-29T11:36:50.653Z,96007.94
2023-03-29T11:39:27.317Z,96013.75
2023-03-29T11:41:55.319Z,96015.22
2023-03-29T11:44:28.148Z,96013.00
2023-03-29T11:47:03.749Z,96009.88
2023-03-29T11:49:42.055Z,96008.41
2023-03-29T11:52:14.836Z,96013.50
2023-03-29T11:55:04.248Z,95994.09
2023-03-29T11:57:54.198Z,96001.16
2023-03-29T12:00:33.398Z,96009.63
2023-03-29T12:03:02.991Z,96002.25
2023-03-29T12:05:36.967Z,96002.25
2023-03-29T12:08:16.713Z,96008.84
2023-03-29T12:10:50.883Z,96003.88
2023-03-29T12:13:29.554Z,96004.22
2023-03-29T12:15:58.183Z,96009.13
2023-03-29T12:18:34.295Z,95999.47
2023-03-29T12:21:03.597Z,95993.59
2023-03-29T12:23:33.743Z,95993.44
2023-03-29T12:26:06.635Z,95999.34
2023-03-29T12:28:58.854Z,95986.06
2023-03-29T12:31:52.910Z,95993.69
2023-03-29T12:34:31.243Z,95992.31
2023-03-29T12:37:19.269Z,95987.16
2023-03-29T12:39:46.336Z,95975.03
2023-03-29T12:42:18.234Z,95981.63
2023-03-29T12:44:59.068Z,95976.91
2023-03-29T12:47:30.320Z,95969.66
2023-03-29T12:49:58.635Z,95969.84
2023-03-29T12:52:35.642Z,95970.13
2023-03-29T12:55:05.128Z,95976.25
2023-03-29T12:57:37.911Z,95975.34
2023-03-29T13:00:25.762Z,95968.63
2023-03-29T13:03:03.886Z,95967.28
2023-03-29T13:05:35.401Z,95962.44
2023-03-29T13:08:23.529Z,95961.03
2023-03-29T13:10:54.938Z,95962.88
2023-03-29T13:13:31.191Z,95967.53
2023-03-29T13:16:18.893Z,95953.97
2023-03-29T13:19:11.617Z,95960.78
2023-03-29T13:22:02.504Z,95955.00
2023-03-29T13:24:45.152Z,95968.88
2023-03-29T13:27:58.466Z,95968.84
2023-03-29T13:30:31.115Z,95961.09
2023-03-29T13:33:07.630Z,95949.00
2023-03-29T13:35:59.150Z,95946.16
2023-03-29T13:38:31.832Z,95944.50
2023-03-29T13:41:04.226Z,95938.56
2023-03-29T13:43:35.532Z,95949.59
2023-03-29T13:46:03.905Z,95951.03
2023-03-29T13:48:33.929Z,95942.78
2023-03-29T13:51:19.530Z,95927.09
2023-03-29T13:54:15.119Z,95937.97
2023-03-29T13:57:04.389Z,95937.22
2023-03-29T13:59:59.508Z,95932.84
2023-03-29T14:02:48.093Z,95934.78
2023-03-29T14:05:18.745Z,95931.63
2023-03-29T14:07:53.488Z,95930.22
2023-03-29T14:10:25.939Z,95917.78
2023-03-29T14:12:53.214Z,95922.47
2023-03-29T14:15:25.354Z,95917.91
2023-03-29T14:17:58.964Z,95912.19
2023-03-29T14:20:27.668Z,95915.56
2023-03-29T14:22:54.714Z,95897.03
2023-03-29T14:25:22.824Z,95900.09
2023-03-29T14:27:50.149Z,95899.69
2023-03-29T14:30:27.838Z,95912.81
2023-03-29T14:32:55.190Z,95896.84
2023-03-29T14:35:27.619Z,95898.22
2023-03-29T14:37:54.594Z,95900.50
2023-03-29T14:40:22.106Z,95893.34
2023-03-29T14:42:49.245Z,95888.78
2023-03-29T14:45:17.863Z,95885.94
2023-03-29T14:47:44.929Z,95883.53
2023-03-29T14:50:38.249Z,95888.44
2023-03-29T14:53:06.167Z,95883.91
2023-03-29T14:55:33.181Z,95881.84
2023-03-29T14:58:00.736Z,95868.75
2023-03-29T15:00:30.391Z,95864.28
2023-03-29T15:02:59.628Z,95867.22
2023-03-29T15:05:31.548Z,95863.97
2023-03-29T15:07:58.558Z,95862.47
2023-03-29T15:10:25.775Z,95859.53
2023-03-29T15:12:52.893Z,95856.31
2023-03-29T15:15:20.021Z,95856.19
2023-03-29T15:17:50.853Z,95852.94
2023-03-29T15:20:25.144Z,95854.34
2023-03-29T15:23:04.391Z,95844.72
2023-03-29T15:25:58.856Z,95844.78
2023-03-29T15:28:36.133Z,95846.66
2023-03-29T15:31:13.383Z,95845.13
2023-03-29T15:33:41.175Z,95839.84
2023-03-29T15:36:09.202Z,95842.94
2023-03-29T15:38:44.148Z,95845.47
2023-03-29T15:41:13.580Z,95850.91
2023-03-29T15:43:41.538Z,95856.38
2023-03-29T15:46:08.973Z,95853.81
2023-03-29T15:48:36.136Z,95846.66
2023-03-29T15:51:06.495Z,95855.66
2023-03-29T15:53:36.309Z,95869.22
2023-03-29T15:56:04.318Z,95864.13
2023-03-29T15:58:31.982Z,95868.06
2023-03-29T16:01:11.605Z,95886.59
2023-03-29T16:03:42.016Z,95886.69
2023-03-29T16:06:12.462Z,95894.16
2023-03-29T16:08:39.361Z,95902.16
2023-03-29T16:11:07.184Z,95906.53
2023-03-29T16:13:34.129Z,95909.53
2023-03-29T16:16:01.630Z,95891.09
2023-03-29T16:18:28.825Z,95889.75
2023-03-29T16:20:56.961Z,95884.00
2023-03-29T16:23:23.872Z,95874.22
2023-03-29T16:25:51.119Z,95883.06
2023-03-29T16:28:18.129Z,95855.53
2023-03-29T16:30:45.043Z,95848.66
2023-03-29T16:33:11.915Z,95835.00
2023-03-29T16:35:42.598Z,95830.31
2023-03-29T16:38:09.768Z,95843.53
2023-03-29T16:40:36.977Z,95834.19
2023-03-29T16:43:04.057Z,95849.38
2023-03-29T16:45:31.218Z,95843.44
2023-03-29T16:47:58.244Z,95840.22
2023-03-29T16:50:25.223Z,95849.28
2023-03-29T16:52:52.860Z,95842.19
2023-03-29T16:55:20.413Z,95826.06
2023-03-29T16:57:47.890Z,95824.56
2023-03-29T17:00:16.367Z,95822.59
2023-03-29T17:02:44.089Z,95829.56
2023-03-29T17:05:14.277Z,95828.25
2023-03-29T17:07:41.388Z,95830.81
2023-03-29T17:10:08.582Z,95833.84
2023-03-29T17:12:35.809Z,95843.16
2023-03-29T17:15:04.452Z,95851.34
2023-03-29T17:17:32.037Z,95852.44
2023-03-29T17:19:59.107Z,95845.13
2023-03-29T17:22:25.992Z,95838.84
2023-03-29T17:24:52.888Z,95829.31
2023-03-29T17:27:19.897Z,95839.94
2023-03-29T17:29:46.779Z,95837.78
2023-03-29T17:32:13.692Z,95827.97
2023-03-29T17:34:41.161Z,95828.53
2023-03-29T17:37:08.084Z,95829.84
2023-03-29T17:39:37.772Z,95824.97
2023-03-29T17:42:05.474Z,95832.84
2023-03-29T17:44:33.577Z,95817.59
2023-03-29T17:47:01.522Z,95809.97
2023-03-29T17:49:28.783Z,95807.25
2023-03-29T17:51:56.078Z,95797.41
2023-03-29T17:54:23.040Z,95794.97
2023-03-29T17:56:50.793Z,95800.91
2023-03-29T17:59:17.743Z,95795.19
2023-03-29T18:01:44.724Z,95795.19
2023-03-29T18:04:11.735Z,95790.28
2023-03-29T18:06:38.731Z,95802.78
2023-03-29T18:09:05.844Z,95796.53
2023-03-29T18:11:32.862Z,95790.81
2023-03-29T18:14:00.592Z,95796.25
2023-03-29T18:16:27.638Z,95797.28
2023-03-29T18:18:54.558Z,95801.59
2023-03-29T18:21:22.440Z,95812.47
2023-03-29T18:23:49.397Z,95818.44
2023-03-29T18:26:16.744Z,95830.38
2023-03-29T18:28:47.396Z,95845.09
2023-03-29T18:31:14.802Z,95858.69
2023-03-29T18:33:41.795Z,95875.63
2023-03-29T18:36:11.992Z,95875.91
2023-03-29T18:38:40.757Z,95879.53
2023-03-29T18:41:08.750Z,95881.47
2023-03-29T18:43:36.213Z,95884.47
2023-03-29T18:46:03.430Z,95890.16
2023-03-29T18:48:31.590Z,95893.97
2023-03-29T18:50:58.503Z,95890.19
2023-03-29T18:53:26.432Z,95897.56
2023-03-29T18:55:53.405Z,95895.94
2023-03-29T18:58:24.306Z,95905.72
2023-03-29T19:00:51.892Z,95910.34
2023-03-29T19:03:18.843Z,95913.91
2023-03-29T19:05:45.709Z,95913.34
2023-03-29T19:08:12.580Z,95910.63
2023-03-29T19:10:39.533Z,95918.81
2023-03-29T19:13:06.411Z,95919.09
2023-03-29T19:15:34.963Z,95922.13
2023-03-29T19:18:02.016Z,95922.13
2023-03-29T19:20:29.573Z,95926.75
2023-03-29T19:22:56.619Z,95920.22
2023-03-29T19:25:23.501Z,95925.13
2023-03-29T19:27:50.577Z,95918.31
2023-03-29T19:30:18.626Z,95932.44
2023-03-29T19:32:45.809Z,95929.97
2023-03-29T19:35:13.550Z,95928.59
2023-03-29T19:37:40.587Z,95929.13
2023-03-29T19:40:11.276Z,95937.81
2023-03-29T19:42:38.800Z,95937.53
2023-03-29T19:45:06.806Z,95938.34
2023-03-29T19:47:34.403Z,95944.03
2023-03-29T19:50:01.468Z,95953.56
2023-03-29T19:52:28.856Z,95941.78
2023-03-29T19:54:57.023Z,95948.56
2023-03-29T19:57:24.525Z,95945.28
2023-03-29T19:59:54.014Z,95950.94
2023-03-29T20:02:21.025Z,95965.53
2023-03-29T20:04:47.904Z,95953.75
2023-03-29T20:07:14.712Z,95947.91
2023-03-29T20:09:44.646Z,95929.84
2023-03-29T20:12:12.421Z,95932.47
2023-03-29T20:14:40.474Z,95909.84
2023-03-29T20:17:07.629Z,95909.56
2023-03-29T20:19:36.777Z,95893.16
2023-03-29T20:22:04.601Z,95886.75
2023-03-29T20:24:32.836Z,95887.97
2023-03-29T20:26:59.762Z,95885.47
2023-03-29T20:29:27.522Z,95877.88
2023-03-29T20:31:54.493Z,95874.66
2023-03-29T20:34:22.386Z,95871.66
2023-03-29T20:36:49.444Z,95870.25
2023-03-29T20:39:20.034Z,95856.06
2023-03-29T20:41:48.186Z,95868.88
2023-03-29T20:44:17.099Z,95855.56
2023-03-29T20:46:54.616Z,95853.66
2023-03-29T20:49:26.691Z,95847.34
2023-03-29T20:51:58.751Z,95851.16
2023-03-29T20:54:26.294Z,95857.09
2023-03-29T20:56:55.100Z,95870.41
2023-03-29T20:59:23.014Z,95856.59
2023-03-29T21:01:50.741Z,95839.72
2023-03-29T21:04:17.805Z,95836.13
2023-03-29T21:06:45.870Z,95828.19
2023-03-29T21:09:13.961Z,95831.69
2023-03-29T21:11:41.111Z,95827.28
2023-03-29T21:14:09.510Z,95821.53
2023-03-29T21:16:36.564Z,95813.34
2023-03-29T21:19:03.406Z,95799.22
2023-03-29T21:21:30.444Z,95802.69
2023-03-29T21:23:57.359Z,95800.44
2023-03-29T21:26:24.270Z,95791.41
2023-03-29T21:28:51.146Z,95785.13
2023-03-29T21:31:18.111Z,95775.84
2023-03-29T21:33:45.148Z,95768.50
2023-03-29T21:36:12.108Z,95768.72
2023-03-29T21:38:39.069Z,95772.22
2023-03-29T21:41:07.151Z,95775.69
2023-03-29T21:43:34.033Z,95767.59
2023-03-29T21:46:01.093Z,95773.34
2023-03-29T21:48:27.934Z,95772.00
2023-03-29T21:50:55.206Z,95782.09
2023-03-29T21:53:22.081Z,95779.94
2023-03-29T21:55:49.702Z,95777.03
2023-03-29T21:58:16.841Z,95770.34
2023-03-29T22:00:44.000Z,95784.56
2023-03-29T22:03:11.003Z,95773.78
2023-03-29T22:05:37.974Z,95782.53
2023-03-29T22:08:05.381Z,95783.13
2023-03-29T22:10:33.308Z,95774.47
2023-03-29T22:13:00.813Z,95785.91
2023-03-29T22:15:29.527Z,95779.97
2023-03-29T22:17:59.225Z,95782.19
2023-03-29T22:20:27.903Z,95790.41
2023-03-29T22:22:55.743Z,95790.44
2023-03-29T22:25:24.730Z,95783.69
2023-03-29T22:27:51.656Z,95781.56
2023-03-29T22:30:18.633Z,95767.47
2023-03-29T22:32:45.639Z,95763.41
2023-03-29T22:35:12.607Z,95757.72
2023-03-29T22:37:43.439Z,95768.91
2023-03-29T22:40:12.267Z,95761.66
2023-03-29T22:42:39.148Z,95762.47
2023-03-29T22:45:06.721Z,95764.66
2023-03-29T22:47:35.542Z,95761.97
2023-03-29T22:50:02.381Z,95763.06
2023-03-29T22:52:29.380Z,95754.91
2023-03-29T22:54:56.793Z,95766.59
2023-03-29T22:57:24.151Z,95756.25
2023-03-29T22:59:51.268Z,95748.91
2023-03-29T23:02:18.242Z,95740.41
2023-03-29T23:04:45.951Z,95735.22
2023-03-29T23:07:12.824Z,95748.00
2023-03-29T23:09:39.880Z,95751.53
2023-03-29T23:12:07.022Z,95745.03
2023-03-29T23:14:34.199Z,95747.25
2023-03-29T23:17:01.287Z,95745.66
2023-03-29T23:19:28.303Z,95748.91
2023-03-29T23:21:55.262Z,95741.84
2023-03-29T23:24:23.088Z,95748.91
2023-03-29T23:26:50.002Z,95752.66
2023-03-29T23:29:16.892Z,95760.81
2023-03-29T23:31:44.621Z,95755.38
2023-03-29T23:34:13.642Z,95763.84
2023-03-29T23:36:40.673Z,95758.09
2023-03-29T23:39:08.178Z,95755.38
2023-03-29T23:41:35.243Z,95766.25
2023-03-29T23:44:03.760Z,95781.50
2023-03-29T23:46:31.531Z,95775.63
2023-03-29T23:48:58.547Z,95786.88
2023-03-29T23:51:28.705Z,95770.63
2023-03-29T23:53:56.097Z,95777.72
2023-03-29T23:56:23.182Z,95775.00
2023-03-29T23:58:50.116Z,95766.78
